sensor_id;sensor_type;location;lat;lon;timestamp;temperature;humidity
72202;SHT30;60105;54.956;73.412;2023-03-31T00:02:18;-3.89;56.31
72202;SHT30;60105;54.956;73.412;2023-03-31T00:05:21;-3.81;56.39
72202;SHT30;60105;54.956;73.412;2023-03-31T00:08:26;-3.89;56.21
72202;SHT30;60105;54.956;73.412;2023-03-31T00:11:29;-3.89;56.42
72202;SHT30;60105;54.956;73.412;2023-03-31T00:14:31;-3.90;56.18
72202;SHT30;60105;54.956;73.412;2023-03-31T00:17:32;-3.96;56.53
72202;SHT30;60105;54.956;73.412;2023-03-31T00:20:33;-3.96;55.99
72202;SHT30;60105;54.956;73.412;2023-03-31T00:23:54;-4.00;55.87
72202;SHT30;60105;54.956;73.412;2023-03-31T00:26:55;-4.02;55.87
72202;SHT30;60105;54.956;73.412;2023-03-31T00:29:56;-4.00;55.80
72202;SHT30;60105;54.956;73.412;2023-03-31T00:32:59;-3.99;55.43
72202;SHT30;60105;54.956;73.412;2023-03-31T00:36:01;-3.97;55.57
72202;SHT30;60105;54.956;73.412;2023-03-31T00:39:17;-3.93;55.40
72202;SHT30;60105;54.956;73.412;2023-03-31T00:42:23;-3.89;55.39
72202;SHT30;60105;54.956;73.412;2023-03-31T00:45:29;-3.83;55.37
72202;SHT30;60105;54.956;73.412;2023-03-31T00:48:53;-3.82;55.46
72202;SHT30;60105;54.956;73.412;2023-03-31T00:52:08;-3.85;55.26
72202;SHT30;60105;54.956;73.412;2023-03-31T00:55:26;-4.00;55.00
72202;SHT30;60105;54.956;73.412;2023-03-31T00:58:56;-4.06;55.69
72202;SHT30;60105;54.956;73.412;2023-03-31T01:02:00;-4.06;55.48
72202;SHT30;60105;54.956;73.412;2023-03-31T01:05:02;-4.06;55.38
72202;SHT30;60105;54.956;73.412;2023-03-31T01:08:05;-4.04;55.34
72202;SHT30;60105;54.956;73.412;2023-03-31T01:11:13;-3.94;55.31
72202;SHT30;60105;54.956;73.412;2023-03-31T01:14:16;-3.93;54.98
72202;SHT30;60105;54.956;73.412;2023-03-31T01:17:29;-3.83;55.09
72202;SHT30;60105;54.956;73.412;2023-03-31T01:31:07;-3.75;53.74
72202;SHT30;60105;54.956;73.412;2023-03-31T01:34:36;-3.62;53.10
72202;SHT30;60105;54.956;73.412;2023-03-31T01:56:34;-3.34;51.53
72202;SHT30;60105;54.956;73.412;2023-03-31T01:59:43;-3.31;50.37
72202;SHT30;60105;54.956;73.412;2023-03-31T02:02:55;-3.25;50.78
72202;SHT30;60105;54.956;73.412;2023-03-31T02:06:10;-3.17;50.23
72202;SHT30;60105;54.956;73.412;2023-03-31T02:09:16;-3.31;50.45
72202;SHT30;60105;54.956;73.412;2023-03-31T02:12:20;-3.20;50.12
72202;SHT30;60105;54.956;73.412;2023-03-31T02:15:27;-3.18;49.44
72202;SHT30;60105;54.956;73.412;2023-03-31T02:18:56;-3.10;48.80
72202;SHT30;60105;54.956;73.412;2023-03-31T02:22:03;-2.94;49.17
72202;SHT30;60105;54.956;73.412;2023-03-31T02:25:10;-2.94;48.62
72202;SHT30;60105;54.956;73.412;2023-03-31T02:28:53;-2.73;48.82
72202;SHT30;60105;54.956;73.412;2023-03-31T02:35:14;-2.59;47.32
72202;SHT30;60105;54.956;73.412;2023-03-31T02:38:22;-2.44;46.31
72202;SHT30;60105;54.956;73.412;2023-03-31T02:41:23;-2.41;45.34
72202;SHT30;60105;54.956;73.412;2023-03-31T02:44:25;-2.46;45.26
72202;SHT30;60105;54.956;73.412;2023-03-31T02:47:27;-2.52;44.88
72202;SHT30;60105;54.956;73.412;2023-03-31T02:50:33;-2.52;45.39
72202;SHT30;60105;54.956;73.412;2023-03-31T02:53:59;-2.38;45.40
72202;SHT30;60105;54.956;73.412;2023-03-31T02:57:19;-2.11;46.11
72202;SHT30;60105;54.956;73.412;2023-03-31T03:07:26;-1.94;42.53
72202;SHT30;60105;54.956;73.412;2023-03-31T03:10:56;-1.87;42.96
72202;SHT30;60105;54.956;73.412;2023-03-31T03:17:31;-1.76;43.38
72202;SHT30;60105;54.956;73.412;2023-03-31T03:20:33;-1.74;43.18
72202;SHT30;60105;54.956;73.412;2023-03-31T03:23:53;-1.79;43.68
72202;SHT30;60105;54.956;73.412;2023-03-31T03:26:55;-1.52;41.59
72202;SHT30;60105;54.956;73.412;2023-03-31T03:29:56;-1.49;41.25
72202;SHT30;60105;54.956;73.412;2023-03-31T03:33:07;-1.39;39.57
72202;SHT30;60105;54.956;73.412;2023-03-31T03:36:10;-1.25;39.79
72202;SHT30;60105;54.956;73.412;2023-03-31T03:39:11;-1.19;38.84
72202;SHT30;60105;54.956;73.412;2023-03-31T03:42:18;-1.28;40.20
72202;SHT30;60105;54.956;73.412;2023-03-31T03:45:19;-1.25;41.09
72202;SHT30;60105;54.956;73.412;2023-03-31T03:48:53;-1.35;40.95
72202;SHT30;60105;54.956;73.412;2023-03-31T03:51:55;-1.11;40.09
72202;SHT30;60105;54.956;73.412;2023-03-31T03:54:57;-0.95;40.63
72202;SHT30;60105;54.956;73.412;2023-03-31T03:57:59;-0.83;39.51
72202;SHT30;60105;54.956;73.412;2023-03-31T04:01:11;-0.66;39.27
72202;SHT30;60105;54.956;73.412;2023-03-31T04:04:12;-0.64;39.41
72202;SHT30;60105;54.956;73.412;2023-03-31T04:07:13;-0.57;39.75
72202;SHT30;60105;54.956;73.412;2023-03-31T04:10:15;-0.36;38.48
72202;SHT30;60105;54.956;73.412;2023-03-31T04:13:53;-0.37;38.35
72202;SHT30;60105;54.956;73.412;2023-03-31T04:16:55;-0.18;38.86
72202;SHT30;60105;54.956;73.412;2023-03-31T04:20:03;-0.15;38.72
72202;SHT30;60105;54.956;73.412;2023-03-31T04:23:05;-0.21;37.51
72202;SHT30;60105;54.956;73.412;2023-03-31T04:26:10;-0.15;37.62
72202;SHT30;60105;54.956;73.412;2023-03-31T04:29:13;-0.08;38.20
72202;SHT30;60105;54.956;73.412;2023-03-31T04:32:16;-0.01;37.74
72202;SHT30;60105;54.956;73.412;2023-03-31T04:35:22;0.10;36.81
72202;SHT30;60105;54.956;73.412;2023-03-31T04:38:24;0.13;36.63
72202;SHT30;60105;54.956;73.412;2023-03-31T04:41:33;0.15;36.47
72202;SHT30;60105;54.956;73.412;2023-03-31T04:44:34;0.13;35.15
72202;SHT30;60105;54.956;73.412;2023-03-31T04:47:36;0.07;35.49
72202;SHT30;60105;54.956;73.412;2023-03-31T04:50:37;0.20;36.11
72202;SHT30;60105;54.956;73.412;2023-03-31T04:53:53;0.06;35.66
72202;SHT30;60105;54.956;73.412;2023-03-31T04:56:55;0.09;35.81
72202;SHT30;60105;54.956;73.412;2023-03-31T04:59:56;0.06;36.21
72202;SHT30;60105;54.956;73.412;2023-03-31T05:03:07;0.33;36.40
72202;SHT30;60105;54.956;73.412;2023-03-31T05:06:10;0.23;35.44
72202;SHT30;60105;54.956;73.412;2023-03-31T05:09:11;0.26;35.99
72202;SHT30;60105;54.956;73.412;2023-03-31T05:12:13;0.50;35.81
72202;SHT30;60105;54.956;73.412;2023-03-31T05:15:14;0.40;35.74
72202;SHT30;60105;54.956;73.412;2023-03-31T05:18:53;0.54;35.00
72202;SHT30;60105;54.956;73.412;2023-03-31T05:22:04;0.54;33.84
72202;SHT30;60105;54.956;73.412;2023-03-31T05:25:07;0.64;33.65
72202;SHT30;60105;54.956;73.412;2023-03-31T05:28:53;0.61;34.03
72202;SHT30;60105;54.956;73.412;2023-03-31T05:31:54;0.70;34.17
72202;SHT30;60105;54.956;73.412;2023-03-31T05:34:56;0.89;34.57
72202;SHT30;60105;54.956;73.412;2023-03-31T05:37:57;0.87;34.24
72202;SHT30;60105;54.956;73.412;2023-03-31T05:41:09;0.67;34.88
72202;SHT30;60105;54.956;73.412;2023-03-31T05:44:11;0.83;35.03
72202;SHT30;60105;54.956;73.412;2023-03-31T05:47:12;0.67;35.84
72202;SHT30;60105;54.956;73.412;2023-03-31T05:50:13;0.80;36.29
72202;SHT30;60105;54.956;73.412;2023-03-31T05:53:53;0.89;35.35
72202;SHT30;60105;54.956;73.412;2023-03-31T05:56:59;0.99;35.94
72202;SHT30;60105;54.956;73.412;2023-03-31T06:00:01;1.04;35.87
72202;SHT30;60105;54.956;73.412;2023-03-31T06:03:05;1.21;35.07
72202;SHT30;60105;54.956;73.412;2023-03-31T06:06:14;1.32;34.46
72202;SHT30;60105;54.956;73.412;2023-03-31T06:09:24;1.43;35.38
72202;SHT30;60105;54.956;73.412;2023-03-31T06:12:31;1.47;34.58
72202;SHT30;60105;54.956;73.412;2023-03-31T06:15:32;1.50;34.31
72202;SHT30;60105;54.956;73.412;2023-03-31T06:18:53;1.49;34.27
72202;SHT30;60105;54.956;73.412;2023-03-31T06:21:55;1.47;31.69
72202;SHT30;60105;54.956;73.412;2023-03-31T06:24:57;1.32;31.73
72202;SHT30;60105;54.956;73.412;2023-03-31T06:27:58;1.35;31.96
72202;SHT30;60105;54.956;73.412;2023-03-31T06:31:11;1.39;32.02
72202;SHT30;60105;54.956;73.412;2023-03-31T06:34:17;1.39;32.77
72202;SHT30;60105;54.956;73.412;2023-03-31T06:37:19;1.52;32.37
72202;SHT30;60105;54.956;73.412;2023-03-31T06:40:20;1.63;32.72
72202;SHT30;60105;54.956;73.412;2023-03-31T06:43:53;1.80;32.48
72202;SHT30;60105;54.956;73.412;2023-03-31T06:46:55;1.90;32.61
72202;SHT30;60105;54.956;73.412;2023-03-31T06:49:56;1.95;31.85
72202;SHT30;60105;54.956;73.412;2023-03-31T06:53:08;2.15;32.23
72202;SHT30;60105;54.956;73.412;2023-03-31T06:56:09;2.20;32.58
72202;SHT30;60105;54.956;73.412;2023-03-31T06:59:10;1.87;33.26
72202;SHT30;60105;54.956;73.412;2023-03-31T07:02:12;1.70;33.41
72202;SHT30;60105;54.956;73.412;2023-03-31T07:05:13;1.75;32.56
72202;SHT30;60105;54.956;73.412;2023-03-31T07:08:22;1.73;32.66
72202;SHT30;60105;54.956;73.412;2023-03-31T07:11:23;1.70;34.19
72202;SHT30;60105;54.956;73.412;2023-03-31T07:14:25;2.00;34.09
72202;SHT30;60105;54.956;73.412;2023-03-31T07:17:26;2.00;33.78
72202;SHT30;60105;54.956;73.412;2023-03-31T07:20:29;1.98;33.13
72202;SHT30;60105;54.956;73.412;2023-03-31T07:23:53;2.14;31.15
72202;SHT30;60105;54.956;73.412;2023-03-31T07:26:54;2.14;32.71
72202;SHT30;60105;54.956;73.412;2023-03-31T07:29:55;2.00;33.12
72202;SHT30;60105;54.956;73.412;2023-03-31T07:32:57;1.88;33.76
72202;SHT30;60105;54.956;73.412;2023-03-31T07:36:03;2.12;33.47
72202;SHT30;60105;54.956;73.412;2023-03-31T07:39:15;2.20;34.42
72202;SHT30;60105;54.956;73.412;2023-03-31T07:42:16;2.24;34.67
72202;SHT30;60105;54.956;73.412;2023-03-31T07:45:20;2.53;34.23
72202;SHT30;60105;54.956;73.412;2023-03-31T07:48:53;2.59;33.79
72202;SHT30;60105;54.956;73.412;2023-03-31T07:51:59;2.50;33.35
72202;SHT30;60105;54.956;73.412;2023-03-31T07:55:01;2.53;33.35
72202;SHT30;60105;54.956;73.412;2023-03-31T07:58:53;2.63;33.32
72202;SHT30;60105;54.956;73.412;2023-03-31T08:02:05;2.73;32.93
72202;SHT30;60105;54.956;73.412;2023-03-31T08:05:07;2.70;33.81
72202;SHT30;60105;54.956;73.412;2023-03-31T08:08:21;2.79;33.10
72202;SHT30;60105;54.956;73.412;2023-03-31T08:11:23;2.76;33.01
72202;SHT30;60105;54.956;73.412;2023-03-31T08:14:31;2.79;33.21
72202;SHT30;60105;54.956;73.412;2023-03-31T08:17:43;2.83;31.01
72202;SHT30;60105;54.956;73.412;2023-03-31T08:20:44;2.62;32.26
72202;SHT30;60105;54.956;73.412;2023-03-31T08:23:53;2.83;32.91
72202;SHT30;60105;54.956;73.412;2023-03-31T08:26:55;3.00;33.64
72202;SHT30;60105;54.956;73.412;2023-03-31T08:29:56;2.89;33.00
72202;SHT30;60105;54.956;73.412;2023-03-31T08:32:57;2.86;32.60
72202;SHT30;60105;54.956;73.412;2023-03-31T08:36:08;3.01;34.01
72202;SHT30;60105;54.956;73.412;2023-03-31T08:39:10;3.18;32.44
72202;SHT30;60105;54.956;73.412;2023-03-31T08:42:15;3.30;32.41
72202;SHT30;60105;54.956;73.412;2023-03-31T08:45:31;3.31;32.51
72202;SHT30;60105;54.956;73.412;2023-03-31T08:48:53;3.52;33.63
72202;SHT30;60105;54.956;73.412;2023-03-31T08:52:00;3.56;32.54
72202;SHT30;60105;54.956;73.412;2023-03-31T08:55:10;3.45;33.12
72202;SHT30;60105;54.956;73.412;2023-03-31T08:58:40;3.52;32.71
72202;SHT30;60105;54.956;73.412;2023-03-31T09:01:55;3.61;32.26
72202;SHT30;60105;54.956;73.412;2023-03-31T09:08:32;3.48;31.93
72202;SHT30;60105;54.956;73.412;2023-03-31T09:11:46;3.56;32.09
72202;SHT30;60105;54.956;73.412;2023-03-31T09:14:59;3.69;32.52
72202;SHT30;60105;54.956;73.412;2023-03-31T09:18:09;3.48;32.73
72202;SHT30;60105;54.956;73.412;2023-03-31T09:24:24;3.58;33.18
72202;SHT30;60105;54.956;73.412;2023-03-31T09:27:29;3.61;32.06
72202;SHT30;60105;54.956;73.412;2023-03-31T09:30:34;3.73;33.06
72202;SHT30;60105;54.956;73.412;2023-03-31T09:33:54;3.82;32.58
72202;SHT30;60105;54.956;73.412;2023-03-31T09:36:57;4.04;34.17
72202;SHT30;60105;54.956;73.412;2023-03-31T09:40:03;4.14;38.26
72202;SHT30;60105;54.956;73.412;2023-03-31T09:43:27;4.14;37.95
72202;SHT30;60105;54.956;73.412;2023-03-31T09:46:32;4.24;38.13
72202;SHT30;60105;54.956;73.412;2023-03-31T09:49:34;4.24;37.36
72202;SHT30;60105;54.956;73.412;2023-03-31T09:52:40;4.33;38.53
72202;SHT30;60105;54.956;73.412;2023-03-31T09:55:54;4.27;38.26
72202;SHT30;60105;54.956;73.412;2023-03-31T09:59:02;4.16;35.57
72202;SHT30;60105;54.956;73.412;2023-03-31T10:05:48;4.25;37.51
72202;SHT30;60105;54.956;73.412;2023-03-31T10:08:54;4.21;38.76
72202;SHT30;60105;54.956;73.412;2023-03-31T10:12:03;4.25;37.42
72202;SHT30;60105;54.956;73.412;2023-03-31T10:15:21;4.25;36.73
72202;SHT30;60105;54.956;73.412;2023-03-31T10:18:53;4.20;38.00
72202;SHT30;60105;54.956;73.412;2023-03-31T10:21:59;3.96;35.82
72202;SHT30;60105;54.956;73.412;2023-03-31T10:25:15;4.13;37.95
72202;SHT30;60105;54.956;73.412;2023-03-31T10:28:52;4.01;37.14
72202;SHT30;60105;54.956;73.412;2023-03-31T10:31:55;4.01;36.82
72202;SHT30;60105;54.956;73.412;2023-03-31T10:35:13;3.85;36.30
72202;SHT30;60105;54.956;73.412;2023-03-31T10:38:28;4.14;38.59
72202;SHT30;60105;54.956;73.412;2023-03-31T10:41:30;4.11;38.42
72202;SHT30;60105;54.956;73.412;2023-03-31T10:44:34;4.14;37.08
72202;SHT30;60105;54.956;73.412;2023-03-31T10:47:48;4.25;38.77
72202;SHT30;60105;54.956;73.412;2023-03-31T10:50:50;4.37;38.85
72202;SHT30;60105;54.956;73.412;2023-03-31T10:53:54;4.52;39.27
72202;SHT30;60105;54.956;73.412;2023-03-31T10:56:58;4.57;38.54
72202;SHT30;60105;54.956;73.412;2023-03-31T11:00:03;4.47;38.04
72202;SHT30;60105;54.956;73.412;2023-03-31T11:04:23;4.34;37.43
72202;SHT30;60105;54.956;73.412;2023-03-31T11:11:10;4.29;37.03
72202;SHT30;60105;54.956;73.412;2023-03-31T11:24:28;4.37;37.25
72202;SHT30;60105;54.956;73.412;2023-03-31T11:41:01;4.17;39.41
72202;SHT30;60105;54.956;73.412;2023-03-31T11:44:15;4.27;38.89
72202;SHT30;60105;54.956;73.412;2023-03-31T11:47:19;4.25;38.60
72202;SHT30;60105;54.956;73.412;2023-03-31T11:50:26;4.31;38.93
72202;SHT30;60105;54.956;73.412;2023-03-31T11:53:53;4.18;39.08
72202;SHT30;60105;54.956;73.412;2023-03-31T11:56:56;4.16;39.86
72202;SHT30;60105;54.956;73.412;2023-03-31T12:04:27;3.96;40.07
72202;SHT30;60105;54.956;73.412;2023-03-31T12:08:17;3.90;40.11
72202;SHT30;60105;54.956;73.412;2023-03-31T12:11:40;3.86;40.71
72202;SHT30;60105;54.956;73.412;2023-03-31T12:15:05;3.87;40.78
72202;SHT30;60105;54.956;73.412;2023-03-31T12:22:16;3.80;40.55
72202;SHT30;60105;54.956;73.412;2023-03-31T12:25:20;3.79;39.48
72202;SHT30;60105;54.956;73.412;2023-03-31T12:28:58;3.58;39.28
72202;SHT30;60105;54.956;73.412;2023-03-31T12:32:17;3.24;40.03
72202;SHT30;60105;54.956;73.412;2023-03-31T12:35:25;3.13;40.24
72202;SHT30;60105;54.956;73.412;2023-03-31T12:55:54;2.86;41.68
72202;SHT30;60105;54.956;73.412;2023-03-31T12:59:17;2.79;41.55
72202;SHT30;60105;54.956;73.412;2023-03-31T13:02:24;2.73;41.35
72202;SHT30;60105;54.956;73.412;2023-03-31T13:11:57;2.26;44.15
72202;SHT30;60105;54.956;73.412;2023-03-31T13:15:12;2.22;43.82
72202;SHT30;60105;54.956;73.412;2023-03-31T13:18:54;2.05;43.40
72202;SHT30;60105;54.956;73.412;2023-03-31T13:21:58;1.95;45.37
72202;SHT30;60105;54.956;73.412;2023-03-31T13:25:36;2.04;44.03
72202;SHT30;60105;54.956;73.412;2023-03-31T13:32:25;2.00;43.91
72202;SHT30;60105;54.956;73.412;2023-03-31T13:35:38;1.97;44.30
72202;SHT30;60105;54.956;73.412;2023-03-31T13:39:13;1.94;44.54
72202;SHT30;60105;54.956;73.412;2023-03-31T13:52:08;1.54;46.12
72202;SHT30;60105;54.956;73.412;2023-03-31T14:08:39;1.25;48.72
72202;SHT30;60105;54.956;73.412;2023-03-31T14:11:42;1.08;48.19
72202;SHT30;60105;54.956;73.412;2023-03-31T14:14:44;1.15;47.60
72202;SHT30;60105;54.956;73.412;2023-03-31T14:17:45;0.98;48.31
72202;SHT30;60105;54.956;73.412;2023-03-31T14:34:49;0.88;47.71
72202;SHT30;60105;54.956;73.412;2023-03-31T14:37:54;0.89;47.41
72202;SHT30;60105;54.956;73.412;2023-03-31T14:40:56;0.77;47.94
72202;SHT30;60105;54.956;73.412;2023-03-31T14:44:01;0.83;46.89
72202;SHT30;60105;54.956;73.412;2023-03-31T14:47:05;0.87;46.56
72202;SHT30;60105;54.956;73.412;2023-03-31T14:50:17;0.83;47.56
72202;SHT30;60105;54.956;73.412;2023-03-31T14:53:59;0.78;47.81
72202;SHT30;60105;54.956;73.412;2023-03-31T14:57:00;0.67;46.73
72202;SHT30;60105;54.956;73.412;2023-03-31T15:00:06;0.74;46.53
72202;SHT30;60105;54.956;73.412;2023-03-31T15:03:53;0.64;47.37
72202;SHT30;60105;54.956;73.412;2023-03-31T15:06:58;0.67;47.19
72202;SHT30;60105;54.956;73.412;2023-03-31T15:10:00;0.61;47.38
72202;SHT30;60105;54.956;73.412;2023-03-31T15:13:37;0.67;46.58
72202;SHT30;60105;54.956;73.412;2023-03-31T15:19:42;0.61;47.81
72202;SHT30;60105;54.956;73.412;2023-03-31T15:22:43;0.56;47.96
72202;SHT30;60105;54.956;73.412;2023-03-31T15:25:47;0.56;48.66
72202;SHT30;60105;54.956;73.412;2023-03-31T15:28:54;0.58;47.49
72202;SHT30;60105;54.956;73.412;2023-03-31T15:35:38;0.43;49.23
72202;SHT30;60105;54.956;73.412;2023-03-31T15:38:45;0.47;48.95
72202;SHT30;60105;54.956;73.412;2023-03-31T15:41:48;0.43;49.46
72202;SHT30;60105;54.956;73.412;2023-03-31T15:44:55;0.35;48.54
72202;SHT30;60105;54.956;73.412;2023-03-31T15:48:00;0.25;48.62
72202;SHT30;60105;54.956;73.412;2023-03-31T15:51:35;0.19;50.13
72202;SHT30;60105;54.956;73.412;2023-03-31T15:54:48;0.19;49.44
72202;SHT30;60105;54.956;73.412;2023-03-31T15:57:50;0.20;49.71
72202;SHT30;60105;54.956;73.412;2023-03-31T16:00:52;0.19;49.60
72202;SHT30;60105;54.956;73.412;2023-03-31T16:03:56;0.16;49.44
72202;SHT30;60105;54.956;73.412;2023-03-31T16:07:21;0.13;49.53
72202;SHT30;60105;54.956;73.412;2023-03-31T16:10:24;0.07;49.78
72202;SHT30;60105;54.956;73.412;2023-03-31T16:13:56;0.05;50.10
72202;SHT30;60105;54.956;73.412;2023-03-31T16:17:06;-0.01;49.96
72202;SHT30;60105;54.956;73.412;2023-03-31T16:20:26;-0.01;49.23
72202;SHT30;60105;54.956;73.412;2023-03-31T16:23:53;-0.05;48.89
72202;SHT30;60105;54.956;73.412;2023-03-31T16:27:01;-0.06;49.26
72202;SHT30;60105;54.956;73.412;2023-03-31T16:30:10;-0.16;49.62
72202;SHT30;60105;54.956;73.412;2023-03-31T16:33:55;-0.19;49.45
72202;SHT30;60105;54.956;73.412;2023-03-31T16:36:56;-0.18;49.31
72202;SHT30;60105;54.956;73.412;2023-03-31T16:39:57;-0.22;48.92
72202;SHT30;60105;54.956;73.412;2023-03-31T16:43:10;-0.21;48.30
72202;SHT30;60105;54.956;73.412;2023-03-31T16:46:11;-0.26;49.04
72202;SHT30;60105;54.956;73.412;2023-03-31T16:49:13;-0.26;48.54
72202;SHT30;60105;54.956;73.412;2023-03-31T16:52:14;-0.32;48.20
72202;SHT30;60105;54.956;73.412;2023-03-31T16:55:16;-0.30;48.83
72202;SHT30;60105;54.956;73.412;2023-03-31T16:58:53;-0.32;48.21
72202;SHT30;60105;54.956;73.412;2023-03-31T17:01:54;-0.28;48.30
72202;SHT30;60105;54.956;73.412;2023-03-31T17:04:56;-0.42;48.28
72202;SHT30;60105;54.956;73.412;2023-03-31T17:07:57;-0.37;47.13
72202;SHT30;60105;54.956;73.412;2023-03-31T17:11:12;-0.28;46.72
72202;SHT30;60105;54.956;73.412;2023-03-31T17:14:14;-0.37;46.47
72202;SHT30;60105;54.956;73.412;2023-03-31T17:17:15;-0.43;46.81
72202;SHT30;60105;54.956;73.412;2023-03-31T17:20:17;-0.49;47.58
72202;SHT30;60105;54.956;73.412;2023-03-31T17:23:53;-0.54;49.04
72202;SHT30;60105;54.956;73.412;2023-03-31T17:26:54;-0.72;49.19
72202;SHT30;60105;54.956;73.412;2023-03-31T17:29:55;-0.77;49.57
72202;SHT30;60105;54.956;73.412;2023-03-31T17:32:57;-0.69;50.10
72202;SHT30;60105;54.956;73.412;2023-03-31T17:35:58;-0.67;48.35
72202;SHT30;60105;54.956;73.412;2023-03-31T17:39:00;-0.72;48.67
72202;SHT30;60105;54.956;73.412;2023-03-31T17:42:02;-0.76;49.10
72202;SHT30;60105;54.956;73.412;2023-03-31T17:45:04;-0.73;48.99
72202;SHT30;60105;54.956;73.412;2023-03-31T17:48:06;-0.73;48.78
72202;SHT30;60105;54.956;73.412;2023-03-31T17:51:12;-0.67;49.11
72202;SHT30;60105;54.956;73.412;2023-03-31T17:54:14;-0.60;48.92
72202;SHT30;60105;54.956;73.412;2023-03-31T17:57:16;-0.66;48.04
72202;SHT30;60105;54.956;73.412;2023-03-31T18:00:17;-0.72;49.89
72202;SHT30;60105;54.956;73.412;2023-03-31T18:03:56;-0.70;49.08
72202;SHT30;60105;54.956;73.412;2023-03-31T18:06:57;-0.80;48.72
72202;SHT30;60105;54.956;73.412;2023-03-31T18:10:04;-0.90;48.85
72202;SHT30;60105;54.956;73.412;2023-03-31T18:13:06;-0.79;48.29
72202;SHT30;60105;54.956;73.412;2023-03-31T18:16:08;-0.77;49.24
72202;SHT30;60105;54.956;73.412;2023-03-31T18:19:09;-0.85;48.73
72202;SHT30;60105;54.956;73.412;2023-03-31T18:22:11;-0.94;48.93
72202;SHT30;60105;54.956;73.412;2023-03-31T18:25:12;-0.80;49.29
72202;SHT30;60105;54.956;73.412;2023-03-31T18:28:52;-0.95;49.03
72202;SHT30;60105;54.956;73.412;2023-03-31T18:31:54;-0.87;49.99
72202;SHT30;60105;54.956;73.412;2023-03-31T18:34:55;-0.87;50.34
72202;SHT30;60105;54.956;73.412;2023-03-31T18:37:57;-0.88;50.15
72202;SHT30;60105;54.956;73.412;2023-03-31T18:40:58;-0.97;49.97
72202;SHT30;60105;54.956;73.412;2023-03-31T18:44:00;-0.97;49.92
72202;SHT30;60105;54.956;73.412;2023-03-31T18:47:01;-1.12;50.37
72202;SHT30;60105;54.956;73.412;2023-03-31T18:50:03;-1.01;50.00
72202;SHT30;60105;54.956;73.412;2023-03-31T18:53:52;-1.07;49.87
72202;SHT30;60105;54.956;73.412;2023-03-31T18:56:54;-1.08;50.26
72202;SHT30;60105;54.956;73.412;2023-03-31T18:59:55;-1.04;49.71
72202;SHT30;60105;54.956;73.412;2023-03-31T19:03:02;-1.11;49.82
72202;SHT30;60105;54.956;73.412;2023-03-31T19:06:06;-1.22;50.60
72202;SHT30;60105;54.956;73.412;2023-03-31T19:09:09;-1.24;50.51
72202;SHT30;60105;54.956;73.412;2023-03-31T19:12:21;-1.27;50.52
72202;SHT30;60105;54.956;73.412;2023-03-31T19:15:22;-1.38;50.68
72202;SHT30;60105;54.956;73.412;2023-03-31T19:18:53;-1.30;50.74
72202;SHT30;60105;54.956;73.412;2023-03-31T19:21:54;-1.25;50.99
72202;SHT30;60105;54.956;73.412;2023-03-31T19:24:56;-1.22;50.80
72202;SHT30;60105;54.956;73.412;2023-03-31T19:27:57;-1.16;50.75
72202;SHT30;60105;54.956;73.412;2023-03-31T19:31:02;-1.25;51.15
72202;SHT30;60105;54.956;73.412;2023-03-31T19:34:09;-1.28;51.79
72202;SHT30;60105;54.956;73.412;2023-03-31T19:37:24;-1.24;51.74
72202;SHT30;60105;54.956;73.412;2023-03-31T19:40:25;-1.39;51.98
72202;SHT30;60105;54.956;73.412;2023-03-31T19:43:53;-1.38;51.70
72202;SHT30;60105;54.956;73.412;2023-03-31T19:46:56;-1.30;51.35
72202;SHT30;60105;54.956;73.412;2023-03-31T19:49:58;-1.39;51.17
72202;SHT30;60105;54.956;73.412;2023-03-31T19:52:59;-1.46;51.61
72202;SHT30;60105;54.956;73.412;2023-03-31T19:56:03;-1.41;50.88
72202;SHT30;60105;54.956;73.412;2023-03-31T19:59:06;-1.46;51.26
72202;SHT30;60105;54.956;73.412;2023-03-31T20:02:12;-1.45;51.01
72202;SHT30;60105;54.956;73.412;2023-03-31T20:05:14;-1.58;51.50
72202;SHT30;60105;54.956;73.412;2023-03-31T20:08:36;-1.63;51.15
72202;SHT30;60105;54.956;73.412;2023-03-31T20:11:38;-1.72;51.62
72202;SHT30;60105;54.956;73.412;2023-03-31T20:14:39;-1.74;51.53
72202;SHT30;60105;54.956;73.412;2023-03-31T20:17:51;-1.62;51.15
72202;SHT30;60105;54.956;73.412;2023-03-31T20:21:06;-1.76;51.48
72202;SHT30;60105;54.956;73.412;2023-03-31T20:24:14;-1.70;51.43
72202;SHT30;60105;54.956;73.412;2023-03-31T20:27:16;-1.58;51.08
72202;SHT30;60105;54.956;73.412;2023-03-31T20:30:17;-1.56;51.04
72202;SHT30;60105;54.956;73.412;2023-03-31T20:33:54;-1.58;50.63
72202;SHT30;60105;54.956;73.412;2023-03-31T20:36:56;-1.60;51.09
72202;SHT30;60105;54.956;73.412;2023-03-31T20:39:58;-1.56;50.91
72202;SHT30;60105;54.956;73.412;2023-03-31T20:42:59;-1.66;51.08
72202;SHT30;60105;54.956;73.412;2023-03-31T20:46:01;-1.67;50.76
72202;SHT30;60105;54.956;73.412;2023-03-31T20:49:04;-1.67;50.37
72202;SHT30;60105;54.956;73.412;2023-03-31T20:52:07;-1.73;50.92
72202;SHT30;60105;54.956;73.412;2023-03-31T20:55:08;-1.79;51.78
72202;SHT30;60105;54.956;73.412;2023-03-31T20:58:53;-1.80;52.28
72202;SHT30;60105;54.956;73.412;2023-03-31T21:01:55;-1.87;52.00
72202;SHT30;60105;54.956;73.412;2023-03-31T21:05:07;-1.84;51.22
72202;SHT30;60105;54.956;73.412;2023-03-31T21:08:21;-1.83;51.29
72202;SHT30;60105;54.956;73.412;2023-03-31T21:11:23;-1.82;51.22
72202;SHT30;60105;54.956;73.412;2023-03-31T21:14:25;-1.82;51.28
72202;SHT30;60105;54.956;73.412;2023-03-31T21:17:36;-1.82;51.80
72202;SHT30;60105;54.956;73.412;2023-03-31T21:20:38;-1.80;52.41
72202;SHT30;60105;54.956;73.412;2023-03-31T21:23:52;-1.89;52.47
72202;SHT30;60105;54.956;73.412;2023-03-31T21:27:04;-1.87;52.82
72202;SHT30;60105;54.956;73.412;2023-03-31T21:30:06;-1.82;52.98
72202;SHT30;60105;54.956;73.412;2023-03-31T21:33:53;-1.86;53.11
72202;SHT30;60105;54.956;73.412;2023-03-31T21:36:56;-1.94;53.64
72202;SHT30;60105;54.956;73.412;2023-03-31T21:39:57;-2.05;54.59
72202;SHT30;60105;54.956;73.412;2023-03-31T21:42:58;-2.07;54.47
72202;SHT30;60105;54.956;73.412;2023-03-31T21:46:06;-2.03;53.76
72202;SHT30;60105;54.956;73.412;2023-03-31T21:49:12;-2.11;53.80
72202;SHT30;60105;54.956;73.412;2023-03-31T21:52:13;-2.10;54.03
72202;SHT30;60105;54.956;73.412;2023-03-31T21:55:20;-2.04;54.17
72202;SHT30;60105;54.956;73.412;2023-03-31T21:58:52;-1.98;53.30
72202;SHT30;60105;54.956;73.412;2023-03-31T22:01:53;-2.17;54.31
72202;SHT30;60105;54.956;73.412;2023-03-31T22:04:55;-2.10;54.32
72202;SHT30;60105;54.956;73.412;2023-03-31T22:07:56;-2.24;54.35
72202;SHT30;60105;54.956;73.412;2023-03-31T22:10:58;-2.35;55.11
72202;SHT30;60105;54.956;73.412;2023-03-31T22:14:02;-2.31;55.25
72202;SHT30;60105;54.956;73.412;2023-03-31T22:17:04;-2.22;55.40
72202;SHT30;60105;54.956;73.412;2023-03-31T22:20:06;-2.40;55.57
72202;SHT30;60105;54.956;73.412;2023-03-31T22:23:07;-2.40;55.43
72202;SHT30;60105;54.956;73.412;2023-03-31T22:26:19;-2.38;55.48